This is the latest recevied weather packets stored in our database for station/object DL5ARK. If no packets are shown the sender has not sent any weather packets the latest 1 day(s).
| Time | Temp. | Humidity | Pressure | Rain* | Wind** | Luminosity | Snow |
|---|---|---|---|---|---|---|---|
| 1777982808 | 21.67° C | 52% | 994.1 hPa | 0 mm | 0 m/s | - | - |
| 1777982630 | 21.67° C | 52% | 994.1 hPa | 0 mm | 0.45 m/s, 67° | - | - |
| 1777982447 | 21.67° C | 52% | 994.1 hPa | 0 mm | 0 m/s | - | - |
| 1777982267 | 22.22° C | 51% | 994.4 hPa | 0 mm | 2.24 m/s, 0° | - | - |
| 1777982087 | 22.78° C | 51% | 994.1 hPa | 0 mm | 1.79 m/s, 337° | - | - |
| 1777981908 | 22.78° C | 49% | 994.1 hPa | 0 mm | 4.47 m/s, 337° | - | - |
| 1777981727 | 22.78° C | 50% | 994.1 hPa | 0 mm | 0.89 m/s, 45° | - | - |
| 1777981550 | 22.22° C | 47% | 993.9 hPa | 0 mm | 1.79 m/s, 22° | - | - |
| 1777981367 | 22.22° C | 47% | 994.1 hPa | 0 mm | 2.68 m/s, 0° | - | - |
| 1777981186 | 23.33° C | 48% | 994.1 hPa | 0 mm | 2.24 m/s, 0° | - | - |
| 1777981007 | 23.33° C | 46% | 994.1 hPa | 0 mm | 0 m/s | - | - |
| 1777980828 | 22.78° C | 45% | 994.4 hPa | 0 mm | 0.89 m/s, 315° | - | - |
| 1777980647 | 22.22° C | 45% | 994.4 hPa | 0 mm | 0.45 m/s, 22° | - | - |
| 1777980468 | 23.33° C | 46% | 994.4 hPa | 0 mm | 0 m/s | - | - |
| 1777980287 | 23.89° C | 47% | 994.4 hPa | 0 mm | 0 m/s | - | - |
| 1777980108 | 23.33° C | 46% | 994.4 hPa | 0 mm | 1.34 m/s, 270° | - | - |
| 1777979927 | 22.22° C | 45% | 994.4 hPa | 0 mm | 1.34 m/s, 337° | - | - |
| 1777979750 | 22.78° C | 47% | 994.4 hPa | 0 mm | 0 m/s | - | - |
| 1777979567 | 21.67° C | 46% | 994.6 hPa | 0 mm | 1.34 m/s, 0° | - | - |
| 1777979387 | 22.78° C | 49% | 994.4 hPa | 0 mm | 3.13 m/s, 0° | - | - |
| 1777979208 | 22.78° C | 49% | 994.4 hPa | 0 mm | 0 m/s | - | - |
| 1777979030 | 22.22° C | 50% | 994.6 hPa | 0 mm | 0 m/s | - | - |
| 1777978850 | 22.22° C | 50% | 994.4 hPa | 0 mm | 0 m/s | - | - |
| 1777978668 | 22.22° C | 50% | 994.6 hPa | 0 mm | 0 m/s | - | - |
| 1777978488 | 21.11° C | 49% | 994.6 hPa | 0 mm | 0 m/s | - | - |
* Rain latest hour (hover to see other rain measurements)
** Current wind speed in m/s (hover to see current wind gust speed)